Time;durP1;ratioP1;P1;durP2;ratioP2;P2;SDS_P1;SDS_P2;PMS_P1;PMS_P2;Temp;Humidity;BMP_temperature;BMP_pressure;BME280_temperature;BME280_humidity;BME280_pressure;Samples;Min_cycle;Max_cycle;Signal;HPM_P1;HPM_P2
2022/10/14 00:00:30;;;;;;;51.78;30.52;;;;;;;8.63;100.00;101337.34;5105307;28;20109;-61
2022/10/14 00:02:55;;;;;;;53.17;30.33;;;;;;;9.04;100.00;101374.25;5103545;28;20040;-60
2022/10/14 00:05:20;;;;;;;53.58;30.88;;;;;;;8.79;100.00;101325.66;5098129;28;20077;-61
2022/10/14 00:07:46;;;;;;;56.40;31.27;;;;;;;8.74;100.00;101311.78;5109623;28;20383;-61
2022/10/14 00:10:11;;;;;;;62.08;34.38;;;;;;;8.79;100.00;101309.91;5097657;28;20363;-60
2022/10/14 00:12:36;;;;;;;62.10;33.03;;;;;;;9.20;100.00;101377.44;5103653;28;20029;-60
2022/10/14 00:15:02;;;;;;;55.67;30.90;;;;;;;9.12;100.00;101355.72;5103872;28;20508;-61
2022/10/14 00:17:27;;;;;;;55.83;30.98;;;;;;;9.26;100.00;101358.97;5096318;28;20032;-61
2022/10/14 00:19:53;;;;;;;51.05;30.58;;;;;;;9.26;100.00;101346.69;5109498;28;20047;-61
2022/10/14 00:22:18;;;;;;;63.13;32.78;;;;;;;9.25;100.00;101347.56;5098113;28;20379;-60
2022/10/14 00:24:43;;;;;;;69.72;33.97;;;;;;;9.23;100.00;101344.13;5103631;28;20097;-60
2022/10/14 00:27:09;;;;;;;69.32;36.05;;;;;;;9.15;100.00;101316.28;5105336;28;20040;-62
2022/10/14 00:29:34;;;;;;;70.13;35.85;;;;;;;9.23;100.00;101324.88;5096541;28;20082;-60
2022/10/14 00:31:59;;;;;;;68.70;34.85;;;;;;;9.15;100.00;101324.16;5108871;28;20075;-61
2022/10/14 00:34:25;;;;;;;65.40;36.08;;;;;;;8.81;100.00;101261.78;5098689;28;20027;-62
2022/10/14 00:36:50;;;;;;;71.30;36.30;;;;;;;9.13;100.00;101315.44;5102775;28;20390;-61
2022/10/14 00:39:15;;;;;;;62.10;33.03;;;;;;;8.82;100.00;101257.38;5106039;28;20121;-60
2022/10/14 00:41:41;;;;;;;77.47;37.42;;;;;;;8.82;100.00;101246.88;5094641;28;20481;-61
2022/10/14 00:44:26;;;;;;;71.88;36.70;;;;;;;9.27;100.00;101306.41;5099550;28;20035;-60
2022/10/14 00:46:52;;;;;;;92.15;37.50;;;;;;;9.30;100.00;101302.84;5101988;28;20478;-61
2022/10/14 00:49:22;;;;;;;79.28;38.38;;;;;;;9.39;100.00;101311.41;5106182;28;20027;-60
2022/10/14 00:52:01;;;;;;;89.13;41.72;;;;;;;9.41;100.00;101300.88;5095696;28;20040;-61
2022/10/14 00:54:43;;;;;;;86.10;41.50;;;;;;;9.46;100.00;101299.00;5103568;28;20047;-60
2022/10/14 00:57:09;;;;;;;92.10;40.78;;;;;;;9.45;100.00;101290.28;5086593;28;20038;-60
2022/10/14 00:59:35;;;;;;;92.03;43.45;;;;;;;9.55;100.00;101307.56;5094838;28;20040;-61
2022/10/14 01:02:01;;;;;;;97.35;49.17;;;;;;;8.92;100.00;101196.81;5094845;28;20039;-60
2022/10/14 01:04:26;;;;;;;107.68;49.63;;;;;;;9.54;100.00;101307.63;5104415;28;20024;-60
2022/10/14 01:07:04;;;;;;;101.57;47.20;;;;;;;9.70;100.00;101327.41;5084130;28;20034;-60
2022/10/14 01:09:40;;;;;;;125.07;49.10;;;;;;;9.74;100.00;101308.06;5096036;28;20172;-60
2022/10/14 01:12:40;;;;;;;154.48;54.20;;;;;;;9.81;100.00;101306.13;5078119;28;20446;-61
2022/10/14 01:15:07;;;;;;;136.57;53.45;;;;;;;9.84;100.00;101299.06;5100254;28;20039;-61
2022/10/14 01:17:54;;;;;;;117.05;53.92;;;;;;;9.92;100.00;101322.56;5106655;28;20111;-60
2022/10/14 01:21:00;;;;;;;132.13;55.42;;;;;;;9.96;100.00;101301.41;5081526;28;20486;-60
2022/10/14 01:23:47;;;;;;;116.57;54.08;;;;;;;10.04;100.00;101310.00;5096436;28;20055;-60
2022/10/14 01:26:24;;;;;;;124.00;53.70;;;;;;;10.09;100.00;101305.50;5080839;28;20433;-60
2022/10/14 01:29:15;;;;;;;108.93;50.88;;;;;;;10.11;100.00;101302.84;5101629;28;20025;-62
2022/10/14 01:31:47;;;;;;;105.05;51.67;;;;;;;10.06;100.00;101305.59;5107448;28;20031;-60
2022/10/14 01:34:13;;;;;;;121.85;53.13;;;;;;;10.15;100.00;101300.16;5105476;28;20111;-60
2022/10/14 01:36:46;;;;;;;113.60;53.70;;;;;;;10.18;100.00;101304.47;5098772;28;20028;-61
2022/10/14 01:39:17;;;;;;;125.40;53.85;;;;;;;10.19;100.00;101297.44;5097388;28;20058;-61
2022/10/14 01:41:46;;;;;;;109.27;52.63;;;;;;;9.89;100.00;101234.09;5107134;28;20020;-61
2022/10/14 01:44:13;;;;;;;118.32;53.63;;;;;;;10.19;100.00;101279.03;5095190;28;20024;-61
2022/10/14 01:46:42;;;;;;;120.38;53.47;;;;;;;10.08;100.00;101250.31;5103535;28;20024;-61
2022/10/14 01:49:16;;;;;;;121.50;54.60;;;;;;;10.26;100.00;101268.31;5102353;28;20406;-60
2022/10/14 01:51:48;;;;;;;116.22;56.13;;;;;;;9.98;100.00;101212.00;5093804;28;20032;-62
2022/10/14 01:54:18;;;;;;;115.53;59.33;;;;;;;10.38;100.00;101275.91;5105839;28;20035;-60
2022/10/14 01:56:45;;;;;;;143.43;61.58;;;;;;;10.40;100.00;101254.81;5100481;28;20119;-61
2022/10/14 01:59:13;;;;;;;121.65;58.78;;;;;;;10.46;100.00;101266.06;5096838;28;20020;-60
2022/10/14 02:01:38;;;;;;;135.90;60.10;;;;;;;10.42;100.00;101251.22;5106795;28;20031;-60
2022/10/14 02:04:14;;;;;;;124.05;60.70;;;;;;;10.16;100.00;101199.25;5078524;28;20498;-60
2022/10/14 02:06:42;;;;;;;140.65;60.25;;;;;;;10.26;100.00;101213.06;5104413;28;20533;-60
2022/10/14 02:09:13;;;;;;;145.02;62.90;;;;;;;10.59;100.00;101264.84;5106559;28;20028;-60
2022/10/14 02:12:17;;;;;;;156.80;65.35;;;;;;;10.65;100.00;101271.72;5097506;28;20159;-60
2022/10/14 02:14:49;;;;;;;161.65;68.15;;;;;;;10.57;100.00;101264.00;5077695;28;20039;-61
2022/10/14 02:17:28;;;;;;;153.30;66.68;;;;;;;10.69;100.00;101265.47;5100715;28;20452;-61
2022/10/14 02:20:05;;;;;;;164.07;68.03;;;;;;;10.39;100.00;101201.31;5110264;28;20471;-61
2022/10/14 02:22:34;;;;;;;187.43;70.13;;;;;;;10.69;100.00;101242.63;5095436;28;20149;-61
2022/10/14 02:25:05;;;;;;;177.93;72.07;;;;;;;10.66;100.00;101239.22;5104979;28;20051;-60
2022/10/14 02:27:31;;;;;;;212.35;75.20;;;;;;;10.76;100.00;101247.75;5099902;28;20082;-61
2022/10/14 02:29:58;;;;;;;190.25;78.10;;;;;;;10.79;100.00;101242.38;5099652;28;20040;-60
2022/10/14 02:32:24;;;;;;;174.68;74.78;;;;;;;10.41;100.00;101167.94;5107755;28;20028;-60
2022/10/14 02:34:51;;;;;;;206.95;76.65;;;;;;;10.87;100.00;101238.66;5104241;28;20067;-61
2022/10/14 02:37:17;;;;;;;209.30;78.35;;;;;;;10.58;100.00;101178.88;5100040;28;20436;-60
2022/10/14 02:39:46;;;;;;;212.32;79.15;;;;;;;10.82;100.00;101214.22;5110367;28;20028;-60
2022/10/14 02:42:11;;;;;;;218.75;81.60;;;;;;;10.96;100.00;101225.22;5099246;28;20027;-60
2022/10/14 02:44:36;;;;;;;224.00;81.63;;;;;;;10.98;100.00;101225.16;5106458;28;20035;-61
2022/10/14 02:47:02;;;;;;;246.52;82.50;;;;;;;10.66;100.00;101161.09;5104847;28;20028;-61
2022/10/14 02:49:27;;;;;;;234.23;82.93;;;;;;;11.03;100.00;101221.50;5099329;28;20060;-59
2022/10/14 02:51:53;;;;;;;245.25;85.50;;;;;;;11.06;100.00;101215.31;5109977;28;20033;-61
2022/10/14 02:54:18;;;;;;;336.58;91.68;;;;;;;11.12;100.00;101220.41;5098813;28;20035;-60
2022/10/14 02:56:43;;;;;;;332.65;94.03;;;;;;;11.16;100.00;101209.72;5105553;28;20032;-60
2022/10/14 02:59:09;;;;;;;287.30;88.07;;;;;;;11.16;100.00;101201.81;5107029;28;20096;-60
2022/10/14 03:01:34;;;;;;;264.40;89.25;;;;;;;11.17;100.00;101205.31;5097725;28;20425;-60
2022/10/14 03:03:59;;;;;;;273.05;89.20;;;;;;;11.23;100.00;101202.50;5110895;28;20559;-60
2022/10/14 03:06:25;;;;;;;259.67;86.35;;;;;;;10.63;100.00;101097.13;5099530;28;20042;-61
2022/10/14 03:08:50;;;;;;;259.42;86.88;;;;;;;11.26;100.00;101191.88;5104431;28;20097;-60
2022/10/14 03:11:15;;;;;;;289.40;90.90;;;;;;;11.27;100.00;101196.22;5107652;28;20067;-61
2022/10/14 03:13:41;;;;;;;254.85;87.85;;;;;;;10.96;100.00;101130.41;5097211;28;20032;-61
2022/10/14 03:16:06;;;;;;;307.13;91.13;;;;;;;11.32;100.00;101182.91;5110580;28;20036;-61
2022/10/14 03:18:32;;;;;;;305.20;92.22;;;;;;;11.32;100.00;101169.75;5100281;28;20088;-60
2022/10/14 03:20:57;;;;;;;282.73;87.97;;;;;;;11.35;100.00;101180.19;5103091;28;20422;-60
2022/10/14 03:23:22;;;;;;;311.52;91.70;;;;;;;10.98;100.00;101109.28;5108259;28;20042;-61
2022/10/14 03:25:48;;;;;;;316.90;91.25;;;;;;;11.33;100.00;101164.41;5097005;28;20567;-61
2022/10/14 03:28:13;;;;;;;385.65;96.00;;;;;;;11.05;100.00;101097.66;5109172;28;20032;-61
2022/10/14 03:30:39;;;;;;;294.75;91.68;;;;;;;11.26;100.00;101128.63;5101978;28;20031;-61
2022/10/14 03:33:04;;;;;;;307.83;91.30;;;;;;;11.17;100.00;101106.06;5101718;28;20028;-60
2022/10/14 03:35:29;;;;;;;304.35;91.85;;;;;;;11.45;100.00;101150.00;5109350;28;20142;-61
2022/10/14 03:37:55;;;;;;;368.48;94.90;;;;;;;11.59;100.00;101160.97;5096980;28;20036;-61
2022/10/14 03:40:21;;;;;;;428.45;100.75;;;;;;;11.61;100.00;101156.53;5108097;28;20038;-60
2022/10/14 03:42:46;;;;;;;323.38;93.88;;;;;;;11.61;100.00;101145.97;5102839;28;20498;-61
2022/10/14 03:45:12;;;;;;;403.98;99.65;;;;;;;11.62;100.00;101145.06;5100519;28;20032;-62
2022/10/14 03:47:37;;;;;;;374.42;95.93;;;;;;;11.65;100.00;101145.81;5108492;28;20027;-60
2022/10/14 03:50:03;;;;;;;379.50;96.25;;;;;;;11.55;100.00;101125.09;5096612;28;20062;-61
2022/10/14 03:52:29;;;;;;;352.42;97.45;;;;;;;11.35;100.00;101080.03;5105378;28;20043;-59
2022/10/14 03:54:55;;;;;;;369.80;94.45;;;;;;;11.43;100.00;101081.53;5103851;28;20027;-59
2022/10/14 03:57:20;;;;;;;438.98;99.65;;;;;;;11.76;100.00;101142.91;5098113;28;20086;-60
2022/10/14 03:59:45;;;;;;;380.20;94.38;;;;;;;11.78;100.00;101130.50;5109073;28;20044;-61
2022/10/14 04:02:11;;;;;;;339.73;94.22;;;;;;;11.71;100.00;101108.75;5095723;28;20039;-61
2022/10/14 04:04:36;;;;;;;325.00;92.18;;;;;;;11.26;100.00;101023.22;5092889;28;20040;-61
2022/10/14 04:07:01;;;;;;;391.85;97.20;;;;;;;11.91;100.00;101133.63;5085979;28;20039;-60
2022/10/14 04:09:28;;;;;;;385.33;93.72;;;;;;;11.67;100.00;101085.16;5107922;28;20036;-62
2022/10/14 04:11:54;;;;;;;430.77;101.13;;;;;;;11.73;100.00;101095.53;5096104;28;20040;-59
2022/10/14 04:14:19;;;;;;;357.25;94.72;;;;;;;11.93;100.00;101122.09;5107341;28;20055;-60
2022/10/14 04:16:44;;;;;;;405.55;97.03;;;;;;;11.93;100.00;101126.50;5100353;28;20486;-60
2022/10/14 04:19:10;;;;;;;419.13;95.60;;;;;;;11.71;100.00;101063.91;5100002;28;20116;-60
2022/10/14 04:21:35;;;;;;;417.10;98.22;;;;;;;11.93;100.00;101114.19;5086459;28;20047;-61
2022/10/14 04:24:00;;;;;;;382.27;95.07;;;;;;;11.68;100.00;101071.88;5098162;28;20483;-62
2022/10/14 04:26:26;;;;;;;467.90;100.70;;;;;;;11.71;100.00;101068.31;5105863;28;20093;-60
2022/10/14 04:28:51;;;;;;;436.33;96.18;;;;;;;12.09;100.00;101132.97;5101190;28;20031;-59
2022/10/14 04:31:16;;;;;;;353.73;93.70;;;;;;;12.09;100.00;101101.31;5098513;28;20032;-60
2022/10/14 04:33:41;;;;;;;416.45;93.80;;;;;;;12.14;100.00;101116.06;5108615;28;20043;-61
2022/10/14 04:36:08;;;;;;;341.77;88.47;;;;;;;11.82;100.00;101048.59;5096556;28;20455;-60
2022/10/14 04:38:33;;;;;;;349.75;88.20;;;;;;;12.19;100.00;101097.47;5103980;28;20342;-60
2022/10/14 04:40:58;;;;;;;365.58;88.90;;;;;;;12.22;100.00;101100.00;5103627;28;20035;-60
2022/10/14 04:43:24;;;;;;;317.92;82.70;;;;;;;11.89;100.00;101033.41;5097940;28;20032;-60
2022/10/14 04:45:49;;;;;;;264.48;76.72;;;;;;;12.23;100.00;101093.81;5108351;28;20028;-61
2022/10/14 04:48:15;;;;;;;304.58;79.20;;;;;;;12.20;100.00;101078.91;5096887;28;20038;-60
2022/10/14 04:50:41;;;;;;;316.52;77.40;;;;;;;11.99;100.00;101042.75;5103840;28;20029;-60
2022/10/14 04:53:07;;;;;;;283.60;74.38;;;;;;;12.26;100.00;101086.63;5104642;28;20547;-61
2022/10/14 04:55:32;;;;;;;254.23;69.40;;;;;;;12.03;100.00;101030.28;5096621;28;20040;-60
2022/10/14 04:57:58;;;;;;;247.68;70.93;;;;;;;12.00;100.00;101018.06;5108839;28;20118;-60
2022/10/14 05:00:23;;;;;;;263.38;66.60;;;;;;;12.36;100.00;101066.91;5096997;28;20043;-61
2022/10/14 05:02:49;;;;;;;263.90;70.00;;;;;;;11.99;100.00;100997.03;5102344;28;20093;-61
2022/10/14 05:05:14;;;;;;;248.85;66.15;;;;;;;12.15;100.00;101027.22;5102308;28;20111;-62
2022/10/14 05:07:40;;;;;;;242.57;64.85;;;;;;;12.37;100.00;101067.78;5092461;28;20056;-60
2022/10/14 05:10:06;;;;;;;251.93;65.47;;;;;;;12.08;100.00;101002.84;5107381;28;20028;-63
2022/10/14 05:12:32;;;;;;;274.50;62.05;;;;;;;12.41;100.00;101070.25;5103430;28;20494;-62
2022/10/14 05:14:57;;;;;;;233.02;59.58;;;;;;;12.08;100.00;101000.22;5100859;28;20036;-62
2022/10/14 05:17:23;;;;;;;297.13;64.40;;;;;;;12.33;100.00;101038.00;5105636;28;20119;-60
2022/10/14 05:19:48;;;;;;;198.32;57.88;;;;;;;12.16;100.00;101007.84;5094511;28;20043;-60
2022/10/14 05:22:13;;;;;;;196.38;55.20;;;;;;;12.11;100.00;100991.31;5106671;28;20040;-59
2022/10/14 05:24:38;;;;;;;220.32;55.83;;;;;;;12.41;100.00;101035.06;5099140;28;20047;-61
2022/10/14 05:27:04;;;;;;;173.88;50.13;;;;;;;12.41;100.00;101030.63;5099999;28;20039;-60
2022/10/14 05:29:29;;;;;;;170.68;50.17;;;;;;;12.48;100.00;101040.97;5106706;28;20032;-60
2022/10/14 05:31:54;;;;;;;173.27;48.25;;;;;;;12.46;100.00;101035.78;5092823;28;20055;-61
2022/10/14 05:34:20;;;;;;;168.15;47.75;;;;;;;12.47;100.00;101037.47;5121320;28;20032;-61
2022/10/14 05:36:45;;;;;;;173.23;46.15;;;;;;;12.24;100.00;100989.94;5101142;28;20506;-60
2022/10/14 05:39:11;;;;;;;163.68;45.50;;;;;;;12.49;100.00;101025.09;5097930;28;20040;-62
2022/10/14 05:41:37;;;;;;;142.00;43.53;;;;;;;12.35;100.00;101000.97;5110604;28;20050;-61
2022/10/14 05:44:03;;;;;;;137.90;42.95;;;;;;;12.16;100.00;100962.97;5097657;28;20024;-61
2022/10/14 05:46:28;;;;;;;139.88;43.05;;;;;;;12.52;100.00;101013.56;5107933;28;20548;-60
2022/10/14 05:48:55;;;;;;;150.02;43.60;;;;;;;12.52;100.00;101016.19;5105967;28;20027;-59
2022/10/14 05:51:21;;;;;;;146.68;43.47;;;;;;;12.52;100.00;101017.03;5101415;28;20043;-60
2022/10/14 05:53:47;;;;;;;139.23;41.95;;;;;;;12.15;100.00;100950.69;5110781;28;20100;-62
2022/10/14 05:56:12;;;;;;;135.82;41.10;;;;;;;12.26;100.00;100969.63;5098740;28;20038;-59
2022/10/14 05:58:38;;;;;;;154.73;40.95;;;;;;;12.55;100.00;101014.28;5107288;28;20107;-62
2022/10/14 06:01:06;;;;;;;92.93;34.70;;;;;;;12.24;100.00;100967.06;5105595;28;20063;-59
2022/10/14 06:03:31;;;;;;;142.90;40.63;;;;;;;12.56;100.00;101021.28;5099706;28;20111;-60
2022/10/14 06:05:57;;;;;;;124.07;38.63;;;;;;;12.60;100.00;101019.41;5111617;28;20131;-60
2022/10/14 06:08:23;;;;;;;128.43;38.28;;;;;;;12.60;100.00;101022.91;5100017;28;20481;-59
2022/10/14 06:10:49;;;;;;;105.45;36.05;;;;;;;12.59;100.00;101007.97;5105556;28;20034;-60
2022/10/14 06:13:14;;;;;;;141.02;38.92;;;;;;;12.61;100.00;101013.22;5108383;28;20107;-60
2022/10/14 06:15:40;;;;;;;109.05;35.78;;;;;;;12.27;100.00;100956.38;5098093;28;20036;-62
2022/10/14 06:18:05;;;;;;;120.30;36.10;;;;;;;12.37;100.00;100965.66;5111614;28;20093;-60
2022/10/14 06:20:31;;;;;;;110.53;34.85;;;;;;;12.64;100.00;101000.72;5102151;28;20122;-65
2022/10/14 06:23:01;;;;;;;138.75;38.42;;;;;;;12.31;100.00;100944.81;5102889;28;20119;-60
2022/10/14 06:25:26;;;;;;;129.57;37.95;;;;;;;12.38;100.00;100956.84;5109746;28;20043;-61
2022/10/14 06:27:51;;;;;;;105.80;35.40;;;;;;;12.66;100.00;101003.31;5098275;28;20423;-60
2022/10/14 06:30:17;;;;;;;116.47;36.13;;;;;;;12.66;100.00;100996.28;5109579;28;20024;-63
2022/10/14 06:32:42;;;;;;;126.25;37.67;;;;;;;12.57;100.00;100983.41;5103644;28;20113;-60
2022/10/14 06:35:08;;;;;;;110.40;35.05;;;;;;;12.72;100.00;101003.97;5101467;28;20039;-61
2022/10/14 06:37:34;;;;;;;118.50;36.38;;;;;;;12.77;100.00;100995.84;5110800;28;20092;-62
2022/10/14 06:39:59;;;;;;;123.15;37.20;;;;;;;12.58;100.00;100952.59;5098061;28;20031;-59
2022/10/14 06:42:24;;;;;;;116.50;36.88;;;;;;;12.80;100.00;100987.81;5107649;28;20510;-59
2022/10/14 06:44:50;;;;;;;117.07;36.83;;;;;;;12.75;100.00;100973.91;5104083;28;20050;-60
2022/10/14 06:47:15;;;;;;;129.02;36.85;;;;;;;12.81;100.00;100978.97;5101483;27;20097;-61
2022/10/14 06:49:40;;;;;;;110.85;36.13;;;;;;;12.87;100.00;100976.91;5103935;28;20032;-60
2022/10/14 06:52:06;;;;;;;119.72;38.05;;;;;;;12.70;100.00;100947.66;5109731;28;20028;-61
2022/10/14 06:54:31;;;;;;;131.63;38.45;;;;;;;12.89;100.00;100971.59;5106031;28;20031;-60
2022/10/14 06:56:56;;;;;;;114.13;37.95;;;;;;;12.60;100.00;100934.91;5105152;28;20032;-60
2022/10/14 06:59:22;;;;;;;158.45;41.72;;;;;;;12.64;100.00;100932.06;5099061;28;20479;-59
2022/10/14 07:01:47;;;;;;;160.63;42.13;;;;;;;12.93;100.00;100979.31;5094427;28;20122;-61
2022/10/14 07:04:13;;;;;;;134.30;42.38;;;;;;;12.86;100.00;100951.44;5083772;28;20046;-62
2022/10/14 07:06:38;;;;;;;153.70;42.53;;;;;;;12.91;100.00;100953.88;5075026;28;20028;-60
2022/10/14 07:09:04;;;;;;;183.95;43.88;;;;;;;13.01;100.00;100971.09;5073251;28;20033;-59
2022/10/14 07:11:29;;;;;;;126.22;42.00;;;;;;;13.06;100.00;100966.50;5071854;28;20143;-59
2022/10/14 07:13:55;;;;;;;197.65;45.80;;;;;;;13.11;100.00;100969.84;5071336;28;20058;-60
2022/10/14 07:16:21;;;;;;;173.90;45.03;;;;;;;12.77;100.00;100904.25;5071184;28;20029;-61
2022/10/14 07:18:47;;;;;;;138.90;44.17;;;;;;;13.13;100.00;100965.38;5071322;28;20040;-60
2022/10/14 07:21:12;;;;;;;117.63;43.60;;;;;;;12.87;100.00;100917.97;5072269;28;20048;-60
2022/10/14 07:23:38;;;;;;;135.60;44.88;;;;;;;13.16;100.00;100959.94;5071927;28;20086;-61
2022/10/14 07:26:03;;;;;;;157.48;44.40;;;;;;;13.20;100.00;100960.66;5080958;28;20048;-59
2022/10/14 07:28:29;;;;;;;201.82;46.50;;;;;;;13.07;100.00;100947.09;5092483;28;20059;-61
2022/10/14 07:31:06;;;;;;;139.55;43.47;;;;;;;13.08;100.00;100943.53;5066830;28;20490;-62
2022/10/14 07:33:33;;;;;;;136.65;42.05;;;;;;;13.26;100.00;100965.69;5078283;28;20518;-61
2022/10/14 07:36:04;;;;;;;163.45;46.03;;;;;;;12.97;100.00;100922.81;5090179;28;20023;-61
2022/10/14 07:38:29;;;;;;;112.75;39.53;;;;;;;12.94;100.00;100919.41;5100049;28;20053;-60
2022/10/14 07:41:00;;;;;;;124.30;39.55;;;;;;;13.32;100.00;100970.72;5100247;28;20040;-64
2022/10/14 07:43:26;;;;;;;127.80;40.92;;;;;;;13.03;100.00;100919.03;5105779;28;20645;-63
2022/10/14 07:45:58;;;;;;;105.50;38.58;;;;;;;13.38;100.00;100968.72;5095081;28;20134;-63
2022/10/14 07:48:24;;;;;;;105.57;36.95;;;;;;;13.10;100.00;100919.69;5104319;28;20526;-65
2022/10/14 07:50:49;;;;;;;114.35;38.33;;;;;;;13.45;100.00;100977.25;5102502;28;20127;-63
2022/10/14 07:53:15;;;;;;;114.20;38.05;;;;;;;13.32;100.00;100945.16;5097362;28;20118;-64
2022/10/14 07:55:50;;;;;;;116.13;37.67;;;;;;;13.21;100.00;100928.03;5108321;28;20062;-64
2022/10/14 07:58:20;;;;;;;102.40;37.53;;;;;;;13.18;100.00;100917.59;5097745;28;20089;-64
2022/10/14 08:00:45;;;;;;;107.05;38.38;;;;;;;13.19;100.00;100903.47;5101461;28;20156;-65
2022/10/14 08:03:10;;;;;;;118.30;39.08;;;;;;;13.51;100.00;100955.84;5103715;28;20055;-63
2022/10/14 08:05:36;;;;;;;119.32;39.00;;;;;;;13.31;100.00;100930.22;5094610;28;20399;-64
2022/10/14 08:08:01;;;;;;;113.85;38.20;;;;;;;13.38;100.00;100933.47;5106064;28;20044;-65
2022/10/14 08:10:26;;;;;;;125.20;37.65;;;;;;;13.57;100.00;100963.50;5099001;28;20035;-63
2022/10/14 08:12:52;;;;;;;119.82;37.97;;;;;;;13.51;100.00;100953.19;5098728;28;20047;-64
2022/10/14 08:15:17;;;;;;;137.23;40.17;;;;;;;13.60;100.00;100958.06;5098663;28;20032;-64
2022/10/14 08:17:42;;;;;;;117.32;39.83;;;;;;;13.30;100.00;100909.16;5107585;28;20067;-64
2022/10/14 08:20:08;;;;;;;130.73;41.50;;;;;;;13.63;100.00;100951.81;5096209;28;20114;-62
2022/10/14 08:22:33;;;;;;;129.77;42.35;;;;;;;13.68;100.00;100952.47;5100970;28;20032;-65
2022/10/14 08:24:58;;;;;;;130.57;40.05;;;;;;;13.77;100.00;100954.72;5096825;28;20456;-64
2022/10/14 08:27:25;;;;;;;151.50;42.58;;;;;;;13.77;100.00;100947.63;5106950;28;20110;-63
2022/10/14 08:29:50;;;;;;;111.70;40.40;;;;;;;13.86;100.00;100952.53;5094590;28;20039;-64
2022/10/14 08:32:16;;;;;;;117.28;40.25;;;;;;;13.69;100.00;100920.63;5104550;28;20032;-63
2022/10/14 08:34:41;;;;;;;139.73;41.83;;;;;;;13.95;100.00;100959.19;5100084;28;20193;-64
2022/10/14 08:37:09;;;;;;;119.18;39.88;;;;;;;13.97;100.00;100954.69;5097463;28;20047;-64
2022/10/14 08:39:35;;;;;;;114.47;38.47;;;;;;;13.92;100.00;100936.34;5106201;28;20106;-64
2022/10/14 08:42:12;;;;;;;144.95;40.33;;;;;;;13.73;100.00;100895.78;5094814;28;20174;-63
2022/10/14 08:45:07;;;;;;;109.90;38.33;;;;;;;14.07;100.00;100954.19;5100540;28;20035;-64
2022/10/14 08:47:36;;;;;;;114.07;38.08;;;;;;;13.75;100.00;100891.28;5098331;28;20487;-65
2022/10/14 08:50:06;;;;;;;119.75;38.88;;;;;;;13.80;100.00;100894.59;5094685;28;20027;-64
2022/10/14 08:52:43;;;;;;;99.82;36.92;;;;;;;14.17;100.00;100943.19;5101264;28;20036;-65
2022/10/14 08:55:24;;;;;;;127.32;39.50;;;;;;;14.22;100.00;100947.34;5103125;28;20062;-63
2022/10/14 08:57:51;;;;;;;;;;;;;;;14.31;100.00;100939.00;5093081;28;20407;-63
2022/10/14 09:00:17;;;;;;;104.68;37.72;;;;;;;14.28;100.00;100933.84;5104216;28;19915;-64
2022/10/14 09:02:50;;;;;;;101.75;37.75;;;;;;;14.33;100.00;100945.09;5082128;28;20431;-64
2022/10/14 09:05:18;;;;;;;103.22;38.45;;;;;;;14.35;100.00;100950.34;5096408;28;20039;-64
2022/10/14 09:07:44;;;;;;;106.18;38.17;;;;;;;14.16;100.00;100904.41;5105792;28;20035;-63
2022/10/14 09:10:27;;;;;;;103.53;37.65;;;;;;;14.39;100.00;100933.41;5092016;28;20035;-63
2022/10/14 09:12:55;;;;;;;86.85;33.55;;;;;;;14.31;100.00;100935.47;5097229;28;20464;-64
2022/10/14 09:15:32;;;;;;;101.60;34.78;;;;;;;14.31;100.00;100930.19;5105952;28;20062;-63
2022/10/14 09:18:19;;;;;;;110.82;36.40;;;;;;;14.15;100.00;100898.28;5080750;28;20063;-65
2022/10/14 09:20:45;;;;;;;111.68;35.95;;;;;;;14.24;100.00;100918.19;5103271;28;20044;-63
2022/10/14 09:23:15;;;;;;;81.47;32.45;;;;;;;14.27;100.00;100923.34;5107717;28;20437;-64
2022/10/14 09:25:51;;;;;;;86.45;32.78;;;;;;;14.20;100.00;100928.03;5098017;28;20040;-64
2022/10/14 09:28:18;;;;;;;75.35;32.05;;;;;;;14.23;100.00;100924.38;5108646;28;20031;-64
2022/10/14 09:30:43;;;;;;;88.35;33.08;;;;;;;14.21;100.00;100929.78;5104758;28;20035;-64
2022/10/14 09:33:16;;;;;;;75.25;30.83;;;;;;;14.17;100.00;100920.25;5099596;28;20076;-64
2022/10/14 09:35:42;;;;;;;81.82;32.30;;;;;;;14.20;100.00;100919.22;5109418;28;20039;-63
2022/10/14 09:38:07;;;;;;;91.72;33.03;;;;;;;14.26;100.00;100933.06;5097820;28;20036;-64
2022/10/14 09:40:43;;;;;;;86.60;31.77;;;;;;;13.97;100.00;100872.66;5104861;28;20032;-64
2022/10/14 09:43:08;;;;;;;74.88;31.50;;;;;;;14.29;100.00;100932.91;5106633;28;20444;-65
2022/10/14 09:45:52;;;;;;;74.97;32.70;;;;;;;14.31;100.00;100919.59;5097830;28;20036;-63
2022/10/14 09:48:31;;;;;;;70.72;32.40;;;;;;;14.00;100.00;100861.94;5105702;28;20390;-64
2022/10/14 09:50:58;;;;;;;85.78;32.53;;;;;;;14.33;100.00;100917.78;5105890;28;20070;-64
2022/10/14 09:53:36;;;;;;;70.30;30.48;;;;;;;14.38;100.00;100915.78;5098208;28;20512;-64
2022/10/14 09:56:04;;;;;;;74.03;31.48;;;;;;;14.31;100.00;100903.72;5080937;28;20077;-62
2022/10/14 09:58:44;;;;;;;82.10;32.25;;;;;;;14.43;100.00;100921.72;5087318;28;20058;-63
2022/10/14 10:01:21;;;;;;;80.57;31.67;;;;;;;14.35;100.00;100902.69;5106394;28;20020;-65
2022/10/14 10:03:47;;;;;;;65.30;29.92;;;;;;;14.20;100.00;100851.25;5096866;28;20032;-64
2022/10/14 10:06:17;;;;;;;65.22;29.80;;;;;;;14.42;100.00;100920.84;5106497;28;20054;-64
2022/10/14 10:08:51;;;;;;;66.23;28.67;;;;;;;14.42;100.00;100909.38;5103981;28;20043;-64
2022/10/14 10:11:27;;;;;;;58.35;28.58;;;;;;;14.15;100.00;100860.34;5098936;28;20032;-64
2022/10/14 10:13:53;;;;;;;65.65;30.38;;;;;;;14.44;100.00;100905.75;5110755;28;20055;-63
2022/10/14 10:16:22;;;;;;;66.60;30.50;;;;;;;14.51;100.00;100919.56;5082260;28;20066;-62
2022/10/14 10:18:49;;;;;;;59.88;28.58;;;;;;;14.55;100.00;100908.75;5102822;28;20081;-64
2022/10/14 10:21:23;;;;;;;64.00;30.45;;;;;;;14.56;100.00;100901.66;5108071;28;20039;-63
2022/10/14 10:23:57;;;;;;;57.50;29.73;;;;;;;14.36;100.00;100856.75;5096518;28;20093;-64
2022/10/14 10:26:33;;;;;;;57.53;29.55;;;;;;;14.60;100.00;100896.13;5104184;28;20043;-64
2022/10/14 10:29:03;;;;;;;52.83;28.95;;;;;;;14.53;100.00;100885.94;5101101;28;20097;-64
2022/10/14 10:31:52;;;;;;;55.95;30.63;;;;;;;14.67;100.00;100903.78;5108441;28;20036;-63
2022/10/14 10:34:44;;;;;;;54.42;30.05;;;;;;;14.39;100.00;100841.53;5084723;28;20398;-64
2022/10/14 10:37:22;;;;;;;53.08;27.95;;;;;;;14.36;100.00;100828.44;5099857;28;20050;-64
2022/10/14 10:40:24;;;;;;;52.85;29.05;;;;;;;14.70;100.00;100893.91;5108610;28;20459;-63
2022/10/14 10:43:48;;;;;;;53.05;29.13;;;;;;;14.74;100.00;100878.72;5103719;28;20039;-63
2022/10/14 10:46:28;;;;;;;49.15;27.42;;;;;;;14.74;100.00;100876.91;5016388;28;20076;-62
2022/10/14 10:49:17;;;;;;;44.17;26.13;;;;;;;14.74;100.00;100884.88;5018899;28;20053;-65
2022/10/14 10:52:01;;;;;;;52.78;28.42;;;;;;;14.76;100.00;100880.38;5097366;28;20079;-62
2022/10/14 10:54:45;;;;;;;57.92;28.55;;;;;;;14.83;100.00;100881.78;5099124;28;20028;-62
2022/10/14 10:57:29;;;;;;;46.20;25.92;;;;;;;14.85;100.00;100879.94;5097862;28;20051;-63
2022/10/14 11:00:03;;;;;;;39.63;23.98;;;;;;;14.80;100.00;100870.50;5108248;28;20031;-63
2022/10/14 11:02:54;;;;;;;47.40;23.55;;;;;;;14.84;100.00;100874.69;5099435;28;20538;-64
2022/10/14 11:05:51;;;;;;;43.28;23.65;;;;;;;14.78;100.00;100856.44;5096514;28;20455;-64